Airfield :
LOGIN :

Register | Disclaimer

   EN    FR    IT 

 










Legend :    VFR   Marginal VFR   IFR   Intensive IFR   Very Intensive IFR
Visi :
Ceiling :
>= 8 km
>= 3000ft
5 to 8 km
1000 to 3000 ft
1500m to 5 km
500 to 1000 ft
800 to 1500m
200 to 500 ft
< 800m
< 200 ft
Symbols :   Thunderstorms  Fog  Heavy snow  Heavy precipitations  Wind > 20 kt
SIGMETs :     Misc.  Thunderstorms  Icing  Turbulence  Mountain Waves  Volcanic Ashes






- Airport Elevation : 265 ft
- IATA code : BJY


LYBT - Batajnica Air Base

CURRENT METAR :
  • 291830Z 33007KT 8000 BKN023 01/01 Q1025 NOSIG

EXPIRED METARs :
  • 291800Z 32006KT 9999 BKN020 01/00 Q1025 NOSIG
  • 291730Z 29003KT 9999 BKN020 02/01 Q1025 NOSIG
  • 291700Z 25003KT 9999 BKN020 01/01 Q1025 NOSIG
  • 291630Z 23003KT 9999 BKN025 02/00 Q1025 NOSIG
  • 291600Z 29002KT 9999 BKN033 01/00 Q1025 NOSIG

TAF TAF LYBT
Valid from the 29 at 18:00 until the 30 at 18:00 UTC


291700Z 2918/3018 25005KT 7000 SCT013 BKN023 TX03/3012Z TNM02/3006Z
TEMPO 2918/3002 BKN008 BKN020
TEMPO 3003/3007 1500 BR



MET'MAP, your aeronautical weather chart ! - Copyright ORBIFLY December 2007 - Disclaimer

ORBIFLY MET'MAP TEAM :

Programming & Development : Alexandra Zaïnal
Original concept : Baudouin d'Aumeries
Technical & hardware support : Manuel Goepfert
Assistance : Marc-Olivier Méhu




SOURCES & CREDITS :

   NOAA